Terminal Aerodrome Forecast
Issued by NWS Goodland, KS

Home | Current Version | Previous Version | Text Only | Print | Product List | Glossary On
Versions: 1 2 3 4 5 6 7 8 9 10 11 12 13 14 15 16 17 18 19 20 21 22
000
FTUS43 KGLD 281203 AAA
TAFGLD
TAF AMD
KGLD 281203Z 2812/2912 30010KT P6SM BKN004
      TEMPO 2813/2816 SCT004
     FM281600 33011KT P6SM SCT015
     FM281900 01011KT P6SM SCT030
     FM282300 03013G19KT P6SM BKN025
     FM290300 02018G25KT 6SM -RASN BR OVC007
     FM290800 02015G23KT 4SM -SN BR OVC007=

USA.gov is the U.S. government's official web portal to all federal, state and local government web resources and services.